createdAt,value
2024-03-05T00:02:32.675Z,23.25
2024-03-05T00:07:38.301Z,23.25
2024-03-05T00:12:43.128Z,25.88
2024-03-05T00:17:47.274Z,25.60
2024-03-05T00:22:53.083Z,28.60
2024-03-05T00:27:57.247Z,26.52
2024-03-05T00:33:04.748Z,33.47
2024-03-05T00:38:18.344Z,25.00
2024-03-05T00:43:26.908Z,26.88
2024-03-05T00:48:31.129Z,25.50
2024-03-05T00:53:37.032Z,25.95
2024-03-05T00:58:41.040Z,23.33
2024-03-05T01:03:49.034Z,23.48
2024-03-05T01:08:54.531Z,22.83
2024-03-05T01:13:59.425Z,23.27
2024-03-05T01:19:03.689Z,20.98
2024-03-05T01:24:12.064Z,21.63
2024-03-05T01:29:18.662Z,22.05
2024-03-05T01:34:22.939Z,22.65
2024-03-05T01:39:30.032Z,20.05
2024-03-05T01:44:35.888Z,20.02
2024-03-05T01:49:40.351Z,20.20
2024-03-05T01:54:46.554Z,18.27
2024-03-05T01:59:50.796Z,19.73
2024-03-05T02:04:56.230Z,19.10
2024-03-05T02:10:08.457Z,19.00
2024-03-05T02:15:14.662Z,19.50
2024-03-05T02:20:18.922Z,18.45
2024-03-05T02:25:24.303Z,18.17
2024-03-05T02:30:28.295Z,18.10
2024-03-05T02:35:32.389Z,17.67
2024-03-05T02:40:37.860Z,18.63
2024-03-05T02:45:42.084Z,17.95
2024-03-05T02:50:48.650Z,16.85
2024-03-05T02:55:54.200Z,17.55
2024-03-05T03:00:58.292Z,19.52
2024-03-05T03:06:03.505Z,16.67
2024-03-05T03:11:09.181Z,18.55
2024-03-05T03:16:17.529Z,15.60
2024-03-05T03:21:23.760Z,19.42
2024-03-05T03:26:29.244Z,14.57
2024-03-05T03:31:33.556Z,14.00
2024-03-05T03:36:38.257Z,14.43
2024-03-05T03:41:44.474Z,14.02
2024-03-05T03:46:51.030Z,13.27
2024-03-05T03:51:55.667Z,13.38
2024-03-05T03:57:01.572Z,12.60
2024-03-05T04:02:06.389Z,11.43
2024-03-05T04:07:11.168Z,11.45
2024-03-05T04:12:16.608Z,10.95
2024-03-05T04:17:20.978Z,10.05
2024-03-05T04:22:25.047Z,10.48
2024-03-05T04:27:31.888Z,11.13
2024-03-05T04:32:36.759Z,10.57
2024-03-05T04:37:42.549Z,10.73
2024-03-05T04:42:50.335Z,10.23
2024-03-05T04:47:54.472Z,13.70
2024-03-05T04:52:59.214Z,14.60
2024-03-05T04:58:06.359Z,15.75
2024-03-05T05:03:10.867Z,13.75
2024-03-05T05:08:15.306Z,10.02
2024-03-05T05:13:21.391Z,10.35
2024-03-05T05:18:25.515Z,11.75
2024-03-05T05:23:29.751Z,15.27
2024-03-05T05:28:35.884Z,12.25
2024-03-05T05:33:40.112Z,12.73
2024-03-05T05:38:45.415Z,13.15
2024-03-05T05:43:53.602Z,12.48
2024-03-05T05:48:57.750Z,11.23
2024-03-05T05:54:03.026Z,12.52
2024-03-05T05:59:10.133Z,12.13
2024-03-05T06:04:14.423Z,11.18
2024-03-05T06:09:28.698Z,9.98
2024-03-05T06:14:34.162Z,10.70
2024-03-05T06:19:40.441Z,11.02
2024-03-05T06:24:44.548Z,12.13
2024-03-05T06:29:51.138Z,13.75
2024-03-05T06:34:55.787Z,14.63
2024-03-05T06:40:00.785Z,15.10
2024-03-05T06:45:08.083Z,7.90
2024-03-05T06:50:20.966Z,8.00
2024-03-05T06:55:52.391Z,8.68
2024-03-05T07:00:58.920Z,8.77
2024-03-05T07:06:08.275Z,9.45
2024-03-05T07:16:19.960Z,8.98
2024-03-05T07:21:26.766Z,8.73
2024-03-05T07:26:34.412Z,9.48
2024-03-05T07:31:40.154Z,9.35
2024-03-05T07:36:45.415Z,9.25
2024-03-05T07:41:50.436Z,8.23
2024-03-05T07:46:55.987Z,9.13
2024-03-05T07:52:02.903Z,9.88
2024-03-05T07:57:07.164Z,9.30
2024-03-05T08:02:14.931Z,8.27
2024-03-05T08:07:19.517Z,8.35
2024-03-05T08:12:23.527Z,8.02
2024-03-05T08:17:29.160Z,8.05
2024-03-05T08:22:35.779Z,7.57
2024-03-05T08:27:40.832Z,7.82
2024-03-05T08:32:47.832Z,8.85
2024-03-05T08:37:52.952Z,7.63
2024-03-05T08:42:57.966Z,8.07
2024-03-05T08:48:03.700Z,7.65
2024-03-05T08:53:09.599Z,8.13
2024-03-05T08:58:14.100Z,8.00
2024-03-05T09:03:19.720Z,7.22
2024-03-05T09:08:27.270Z,5.40
2024-03-05T09:13:33.254Z,6.70
2024-03-05T09:18:39.264Z,6.38
2024-03-05T09:23:43.529Z,5.90
2024-03-05T09:28:47.790Z,4.72
2024-03-05T09:33:54.569Z,4.85
2024-03-05T09:38:58.740Z,4.47
2024-03-05T09:44:04.742Z,5.18
2024-03-05T09:49:21.344Z,5.00
2024-03-05T09:54:26.913Z,5.10
2024-03-05T09:59:30.997Z,4.22
2024-03-05T10:04:43.271Z,4.88
2024-03-05T10:09:48.878Z,5.28
2024-03-05T10:14:54.835Z,5.10
2024-03-05T10:20:01.207Z,5.38
2024-03-05T10:25:15.901Z,5.88
2024-03-05T10:30:26.327Z,13.65
2024-03-05T10:35:34.905Z,16.35
2024-03-05T10:40:39.532Z,18.77
2024-03-05T10:45:46.165Z,20.02
2024-03-05T10:50:54.017Z,20.00
2024-03-05T10:55:58.078Z,18.13
2024-03-05T11:01:03.958Z,15.43
2024-03-05T11:06:13.880Z,20.58
2024-03-05T11:11:21.273Z,14.80
2024-03-05T11:16:28.430Z,18.45
2024-03-05T11:21:43.028Z,19.80
2024-03-05T11:26:47.159Z,22.63
2024-03-05T11:31:52.296Z,21.02
2024-03-05T11:37:13.238Z,18.20
2024-03-05T11:42:20.512Z,19.60
2024-03-05T11:47:25.271Z,21.40
2024-03-05T11:52:31.248Z,20.05
2024-03-05T11:57:35.745Z,18.60
2024-03-05T12:02:40.017Z,21.55
2024-03-05T12:08:00.020Z,21.23
2024-03-05T12:13:06.147Z,20.58
2024-03-05T12:18:12.303Z,18.33
2024-03-05T12:23:40.237Z,19.42
2024-03-05T12:28:43.088Z,20.42
2024-03-05T12:33:47.392Z,21.17
2024-03-05T12:38:53.097Z,19.88
2024-03-05T12:43:57.365Z,16.90
2024-03-05T12:49:02.647Z,19.13
2024-03-05T12:54:12.747Z,21.35
2024-03-05T12:59:22.479Z,22.70
2024-03-05T13:04:27.038Z,22.33
2024-03-05T13:09:32.597Z,24.67
2024-03-05T13:14:36.997Z,31.90
2024-03-05T13:19:41.638Z,31.15
2024-03-05T13:24:47.628Z,34.83
2024-03-05T13:30:01.361Z,34.65
2024-03-05T13:35:14.623Z,35.17
2024-03-05T13:40:20.985Z,30.55
2024-03-05T13:45:25.051Z,27.60
2024-03-05T13:50:30.727Z,32.08
2024-03-05T13:55:36.177Z,35.38
2024-03-05T14:00:40.922Z,30.75
2024-03-05T14:05:45.719Z,28.00
2024-03-05T14:10:55.537Z,27.83
2024-03-05T14:15:59.616Z,28.10
2024-03-05T14:21:06.139Z,29.02
2024-03-05T14:26:13.376Z,27.35
2024-03-05T14:31:18.486Z,34.90
2024-03-05T14:36:23.351Z,29.73
2024-03-05T14:41:29.097Z,30.73
2024-03-05T14:46:34.156Z,30.85
2024-03-05T14:51:38.358Z,28.73
2024-03-05T14:56:43.912Z,26.70
2024-03-05T15:01:50.454Z,23.65
2024-03-05T15:06:57.329Z,39.33
2024-03-05T15:12:05.114Z,13.50
2024-03-05T15:17:09.927Z,10.55
2024-03-05T15:22:14.161Z,10.40
2024-03-05T15:27:23.322Z,12.23
2024-03-05T15:32:28.297Z,13.93
2024-03-05T15:37:34.331Z,15.80
2024-03-05T15:42:42.234Z,18.63
2024-03-05T15:47:48.032Z,21.05
2024-03-05T15:52:53.554Z,23.38
2024-03-05T15:58:09.763Z,24.45
2024-03-05T16:03:14.666Z,23.38
2024-03-05T16:08:21.474Z,23.98
2024-03-05T16:13:31.121Z,24.83
2024-03-05T16:18:35.806Z,24.15
2024-03-05T16:23:41.285Z,18.27
2024-03-05T16:28:47.126Z,21.73
2024-03-05T16:33:51.804Z,22.20
2024-03-05T16:38:55.897Z,22.40
2024-03-05T16:44:03.255Z,21.02
2024-03-05T16:49:09.586Z,20.40
2024-03-05T16:54:15.939Z,24.30
2024-03-05T16:59:21.514Z,22.45
2024-03-05T17:04:29.600Z,19.00
2024-03-05T17:09:33.834Z,16.88
2024-03-05T17:14:42.937Z,14.38
2024-03-05T17:19:48.301Z,17.70
2024-03-05T17:24:53.816Z,16.25
2024-03-05T17:29:59.828Z,15.77
2024-03-05T17:35:05.048Z,19.80
2024-03-05T17:40:10.945Z,19.23
2024-03-05T17:45:17.647Z,22.35
2024-03-05T17:50:23.424Z,28.08
2024-03-05T17:55:28.853Z,30.42
2024-03-05T18:00:42.808Z,30.95
2024-03-05T18:05:47.435Z,34.63
2024-03-05T18:10:52.035Z,40.25
2024-03-05T18:15:57.642Z,30.92
2024-03-05T18:21:01.827Z,30.38
2024-03-05T18:26:07.069Z,34.03
2024-03-05T18:31:15.937Z,32.85
2024-03-05T18:36:20.828Z,27.15
2024-03-05T18:41:24.865Z,28.17
2024-03-05T18:46:30.662Z,29.83
2024-03-05T18:51:36.008Z,28.45
2024-03-05T18:56:40.007Z,29.45
2024-03-05T19:01:46.617Z,32.75
2024-03-05T19:06:50.784Z,29.38
2024-03-05T19:11:55.046Z,31.85
2024-03-05T19:17:00.662Z,29.48
2024-03-05T19:22:06.012Z,27.42
2024-03-05T19:27:13.672Z,42.67
2024-03-05T19:32:20.695Z,33.33
2024-03-05T19:37:26.164Z,32.15
2024-03-05T19:42:31.670Z,36.30
2024-03-05T19:47:37.285Z,36.92
2024-03-05T19:52:41.955Z,35.17
2024-03-05T19:57:46.373Z,26.90
2024-03-05T20:02:52.593Z,26.05
2024-03-05T20:08:01.068Z,23.83
2024-03-05T20:13:05.459Z,21.90
2024-03-05T20:18:11.045Z,20.67
2024-03-05T20:23:15.321Z,20.40
2024-03-05T20:28:19.410Z,34.33
2024-03-05T20:33:24.974Z,25.20
2024-03-05T20:38:29.447Z,19.60
2024-03-05T20:43:33.721Z,23.20
2024-03-05T20:48:39.315Z,23.77
2024-03-05T20:53:44.237Z,25.20
2024-03-05T20:58:48.540Z,30.15
2024-03-05T21:03:56.752Z,37.33
2024-03-05T21:09:01.525Z,40.40
2024-03-05T21:14:05.910Z,35.88
2024-03-05T21:19:11.435Z,29.63
2024-03-05T21:24:16.578Z,33.45
2024-03-05T21:29:20.724Z,35.67
2024-03-05T21:34:26.198Z,36.28
2024-03-05T21:39:30.546Z,37.58
2024-03-05T21:44:41.693Z,35.45
2024-03-05T21:49:48.483Z,36.60
2024-03-05T21:54:53.194Z,29.60
2024-03-05T21:59:57.327Z,40.55
2024-03-05T22:05:02.998Z,26.98
2024-03-05T22:10:08.260Z,29.00
2024-03-05T22:15:12.521Z,35.30
2024-03-05T22:20:18.301Z,28.73
2024-03-05T22:25:22.633Z,27.67
2024-03-05T22:30:27.019Z,37.15
2024-03-05T22:35:33.041Z,37.70
2024-03-05T22:40:38.244Z,39.85
2024-03-05T22:45:43.537Z,31.77
2024-03-05T22:50:52.180Z,27.58
2024-03-05T22:55:56.746Z,33.67
2024-03-05T23:01:05.862Z,29.95
2024-03-05T23:06:18.546Z,23.92
2024-03-05T23:11:25.507Z,25.08
2024-03-05T23:16:29.902Z,22.67
2024-03-05T23:21:35.389Z,21.35
2024-03-05T23:26:39.557Z,21.00
2024-03-05T23:31:43.571Z,20.70
2024-03-05T23:36:49.066Z,21.40
2024-03-05T23:41:54.867Z,20.88
2024-03-05T23:46:59.356Z,21.42
2024-03-05T23:52:06.859Z,17.80
2024-03-05T23:57:11.124Z,19.65
